createdAt,value
2018-08-04T00:00:05.314Z,100.00
2018-08-04T00:02:43.505Z,100.00
2018-08-04T00:05:20.602Z,100.00
2018-08-04T00:07:57.926Z,100.00
2018-08-04T00:10:35.757Z,100.00
2018-08-04T00:13:12.954Z,100.00
2018-08-04T00:15:50.083Z,100.00
2018-08-04T00:18:27.479Z,100.00
2018-08-04T00:21:05.291Z,100.00
2018-08-04T00:23:42.956Z,100.00
2018-08-04T00:26:21.048Z,100.00
2018-08-04T00:28:58.554Z,100.00
2018-08-04T00:34:30.399Z,100.00
2018-08-04T00:37:08.080Z,100.00
2018-08-04T00:39:46.491Z,100.00
2018-08-04T00:42:24.843Z,100.00
2018-08-04T00:45:02.650Z,100.00
2018-08-04T00:47:40.484Z,100.00
2018-08-04T00:50:17.181Z,100.00
2018-08-04T00:52:54.315Z,100.00
2018-08-04T00:55:32.297Z,100.00
2018-08-04T00:58:10.165Z,100.00
2018-08-04T01:00:47.355Z,100.00
2018-08-04T01:03:24.361Z,100.00
2018-08-04T01:06:03.123Z,100.00
2018-08-04T01:08:41.272Z,100.00
2018-08-04T01:11:19.884Z,100.00
2018-08-04T01:13:58.001Z,100.00
2018-08-04T01:16:34.113Z,100.00
2018-08-04T01:19:11.565Z,100.00
2018-08-04T01:21:49.354Z,100.00
2018-08-04T01:24:27.437Z,100.00
2018-08-04T01:27:04.793Z,100.00
2018-08-04T01:29:43.295Z,100.00
2018-08-04T01:32:21.687Z,100.00
2018-08-04T01:34:59.607Z,100.00
2018-08-04T01:37:36.996Z,100.00
2018-08-04T01:40:14.395Z,100.00
2018-08-04T01:42:52.055Z,99.20
2018-08-04T01:45:30.353Z,99.36
2018-08-04T01:48:07.595Z,99.34
2018-08-04T01:50:44.560Z,99.40
2018-08-04T01:53:21.838Z,98.57
2018-08-04T01:55:59.595Z,97.51
2018-08-04T01:58:36.956Z,97.10
2018-08-04T02:01:14.680Z,96.02
2018-08-04T02:03:52.230Z,91.28
2018-08-04T02:06:29.030Z,92.93
2018-08-04T02:09:07.719Z,94.41
2018-08-04T02:11:45.191Z,93.95
2018-08-04T02:14:22.715Z,92.12
2018-08-04T02:17:00.151Z,90.49
2018-08-04T02:19:37.673Z,89.97
2018-08-04T02:22:15.511Z,91.00
2018-08-04T02:24:53.353Z,90.03
2018-08-04T02:27:30.119Z,89.48
2018-08-04T02:30:07.627Z,89.99
2018-08-04T02:32:45.031Z,86.08
2018-08-04T02:35:21.637Z,88.12
2018-08-04T02:37:59.592Z,86.03
2018-08-04T02:40:36.711Z,87.09
2018-08-04T02:43:14.437Z,86.94
2018-08-04T02:45:52.026Z,87.47
2018-08-04T02:48:29.755Z,88.92
2018-08-04T02:51:07.163Z,89.89
2018-08-04T02:53:44.638Z,89.45
2018-08-04T02:56:22.394Z,88.14
2018-08-04T02:59:00.568Z,89.18
2018-08-04T03:01:38.767Z,89.06
2018-08-04T03:04:16.238Z,88.60
2018-08-04T03:06:53.563Z,88.21
2018-08-04T03:09:31.432Z,83.26
2018-08-04T03:12:08.528Z,84.39
2018-08-04T03:14:45.274Z,85.21
2018-08-04T03:17:23.161Z,84.64
2018-08-04T03:19:59.564Z,83.71
2018-08-04T03:22:36.719Z,82.48
2018-08-04T03:25:14.126Z,83.23
2018-08-04T03:27:51.598Z,82.24
2018-08-04T03:30:28.245Z,81.73
2018-08-04T03:33:05.766Z,82.05
2018-08-04T03:35:43.004Z,78.55
2018-08-04T03:38:20.440Z,81.81
2018-08-04T03:40:57.157Z,81.02
2018-08-04T03:43:34.279Z,82.23
2018-08-04T03:46:11.199Z,80.06
2018-08-04T03:48:47.851Z,83.49
2018-08-04T03:51:24.926Z,79.98
2018-08-04T03:54:02.204Z,80.40
2018-08-04T03:56:39.283Z,80.82
2018-08-04T03:59:15.676Z,81.37
2018-08-04T04:01:53.194Z,80.44
2018-08-04T04:04:30.388Z,77.35
2018-08-04T04:07:07.444Z,78.67
2018-08-04T04:09:44.955Z,78.62
2018-08-04T04:12:21.923Z,79.15
2018-08-04T04:14:59.351Z,78.49
2018-08-04T04:17:42.516Z,77.42
2018-08-04T04:20:21.604Z,78.19
2018-08-04T04:22:59.119Z,78.74
2018-08-04T04:25:36.636Z,78.12
2018-08-04T04:28:14.727Z,77.19
2018-08-04T04:30:51.344Z,76.55
2018-08-04T04:33:29.664Z,78.57
2018-08-04T04:36:06.348Z,75.67
2018-08-04T04:38:43.119Z,74.87
2018-08-04T04:41:21.842Z,75.18
2018-08-04T04:43:59.275Z,73.25
2018-08-04T04:46:39.696Z,76.11
2018-08-04T04:49:17.394Z,75.83
2018-08-04T04:51:54.911Z,75.10
2018-08-04T04:54:32.267Z,75.84
2018-08-04T04:57:09.918Z,74.42
2018-08-04T04:59:48.714Z,74.10
2018-08-04T05:02:25.635Z,76.10
2018-08-04T05:05:03.075Z,74.71
2018-08-04T05:07:40.720Z,76.04
2018-08-04T05:10:18.076Z,75.87
2018-08-04T05:12:55.597Z,76.20
2018-08-04T05:15:32.520Z,77.53
2018-08-04T05:18:10.553Z,73.34
2018-08-04T05:20:47.961Z,76.67
2018-08-04T05:23:24.724Z,76.89
2018-08-04T05:26:01.562Z,77.05
2018-08-04T05:28:39.194Z,75.57
2018-08-04T05:31:16.878Z,74.45
2018-08-04T05:33:54.041Z,73.47
2018-08-04T05:36:31.889Z,76.19
2018-08-04T05:39:10.837Z,74.80
2018-08-04T05:41:48.078Z,75.90
2018-08-04T05:44:25.274Z,75.54
2018-08-04T05:47:02.155Z,74.71
2018-08-04T05:49:40.367Z,74.41
2018-08-04T05:52:17.364Z,73.79
2018-08-04T05:54:54.638Z,73.55
2018-08-04T05:57:32.071Z,74.62
2018-08-04T06:00:13.209Z,74.94
2018-08-04T06:02:58.707Z,75.18
2018-08-04T06:05:37.752Z,76.67
2018-08-04T06:08:18.831Z,76.46
2018-08-04T06:10:55.965Z,76.81
2018-08-04T06:13:33.073Z,76.83
2018-08-04T06:16:10.432Z,74.67
2018-08-04T06:18:48.564Z,73.85
2018-08-04T06:21:25.109Z,73.19
2018-08-04T06:24:02.166Z,75.15
2018-08-04T06:26:39.362Z,72.16
2018-08-04T06:29:16.889Z,71.09
2018-08-04T06:34:30.006Z,68.99
2018-08-04T06:37:06.884Z,69.06
2018-08-04T06:39:43.953Z,72.10
2018-08-04T06:42:21.349Z,70.18
2018-08-04T06:44:58.555Z,72.00
2018-08-04T06:47:35.517Z,71.46
2018-08-04T06:50:13.443Z,70.04
2018-08-04T06:52:51.482Z,71.09
2018-08-04T06:55:28.284Z,70.77
2018-08-04T06:58:05.186Z,70.18
2018-08-04T07:00:46.865Z,70.27
2018-08-04T07:03:29.114Z,71.21
2018-08-04T07:06:06.318Z,71.28
2018-08-04T07:08:43.521Z,69.39
2018-08-04T07:11:21.043Z,71.74
2018-08-04T07:13:57.563Z,67.90
2018-08-04T07:16:34.480Z,68.33
2018-08-04T07:19:10.531Z,68.91
2018-08-04T07:21:47.835Z,70.00
2018-08-04T07:24:34.069Z,70.04
2018-08-04T07:27:14.558Z,70.27
2018-08-04T07:29:53.729Z,69.39
2018-08-04T07:32:32.164Z,69.90
2018-08-04T07:35:09.313Z,70.94
2018-08-04T07:37:47.001Z,69.90
2018-08-04T07:40:24.606Z,70.14
2018-08-04T07:43:03.275Z,69.15
2018-08-04T07:45:41.352Z,67.90
2018-08-04T07:48:24.161Z,71.11
2018-08-04T07:51:01.998Z,67.96
2018-08-04T07:53:39.411Z,68.38
2018-08-04T07:56:16.092Z,70.22
2018-08-04T07:58:54.283Z,70.35
2018-08-04T08:06:00.600Z,70.66
2018-08-04T08:08:45.835Z,69.90
2018-08-04T08:11:31.163Z,72.42
2018-08-04T08:14:08.042Z,69.50
2018-08-04T08:16:44.952Z,71.23
2018-08-04T08:19:21.610Z,69.87
2018-08-04T08:21:59.435Z,69.34
2018-08-04T08:24:36.476Z,69.62
2018-08-04T08:27:14.634Z,67.91
2018-08-04T08:29:55.035Z,68.93
2018-08-04T08:32:32.136Z,67.94
2018-08-04T08:35:09.716Z,70.26
2018-08-04T08:37:47.132Z,68.53
2018-08-04T08:40:24.247Z,69.54
2018-08-04T08:43:00.948Z,69.85
2018-08-04T08:45:38.693Z,70.95
2018-08-04T08:48:16.116Z,69.21
2018-08-04T08:53:40.142Z,69.55
2018-08-04T08:56:18.967Z,67.82
2018-08-04T08:58:56.418Z,69.43
2018-08-04T09:01:34.155Z,68.76
2018-08-04T09:04:16.712Z,69.80
2018-08-04T09:06:54.160Z,70.45
2018-08-04T09:09:31.153Z,68.67
2018-08-04T09:12:19.915Z,70.44
2018-08-04T09:15:12.620Z,70.27
2018-08-04T09:17:48.803Z,72.63
2018-08-04T09:20:27.002Z,69.54
2018-08-04T09:23:04.085Z,71.38
2018-08-04T09:25:41.910Z,69.19
2018-08-04T09:28:19.599Z,70.07
2018-08-04T09:30:56.447Z,69.09
2018-08-04T09:33:34.193Z,69.11
2018-08-04T09:36:12.352Z,71.83
2018-08-04T09:38:50.082Z,69.42
2018-08-04T09:41:30.064Z,68.93
2018-08-04T09:44:06.472Z,71.66
2018-08-04T09:46:43.911Z,71.16
2018-08-04T09:49:21.393Z,68.68
2018-08-04T09:51:58.601Z,69.92
2018-08-04T09:54:36.881Z,67.95
2018-08-04T09:57:14.965Z,68.29
2018-08-04T09:59:53.104Z,67.23
2018-08-04T10:02:31.030Z,68.67
2018-08-04T10:05:08.886Z,68.37
2018-08-04T10:14:15.596Z,68.69
2018-08-04T10:17:12.999Z,69.92
2018-08-04T10:19:48.628Z,69.23
2018-08-04T10:22:24.511Z,71.20
2018-08-04T10:25:03.664Z,69.63
2018-08-04T10:27:39.444Z,70.50
2018-08-04T10:30:15.700Z,71.65
2018-08-04T10:32:51.684Z,72.33
2018-08-04T10:35:27.393Z,70.14
2018-08-04T10:38:03.032Z,71.28
2018-08-04T10:40:38.832Z,70.80
2018-08-04T10:43:14.481Z,68.28
2018-08-04T10:45:50.748Z,69.06
2018-08-04T10:48:26.554Z,71.06
2018-08-04T10:51:02.690Z,69.73
2018-08-04T10:53:38.747Z,70.17
2018-08-04T10:56:15.834Z,70.32
2018-08-04T10:58:51.507Z,70.05
2018-08-04T11:01:27.891Z,71.18
2018-08-04T11:04:03.462Z,71.31
2018-08-04T11:06:39.194Z,71.39
2018-08-04T11:09:15.283Z,71.87
2018-08-04T11:11:51.082Z,70.20
2018-08-04T11:14:26.966Z,69.57
2018-08-04T11:17:02.718Z,70.79
2018-08-04T11:19:38.552Z,70.68
2018-08-04T11:22:14.466Z,70.82
2018-08-04T11:24:51.525Z,71.03
2018-08-04T11:27:27.844Z,70.11
2018-08-04T11:30:03.834Z,71.41
2018-08-04T11:32:40.398Z,72.39
2018-08-04T11:35:16.523Z,71.47
2018-08-04T11:37:53.112Z,72.48
2018-08-04T11:40:29.637Z,73.64
2018-08-04T11:43:06.826Z,73.85
2018-08-04T11:45:42.721Z,73.42
2018-08-04T11:48:19.330Z,73.53
2018-08-04T11:50:55.475Z,74.34
2018-08-04T11:53:31.931Z,74.47
2018-08-04T11:56:09.052Z,74.31
2018-08-04T11:58:45.963Z,75.00
2018-08-04T12:01:21.889Z,75.33
2018-08-04T12:03:58.202Z,75.74
2018-08-04T12:06:34.661Z,75.79
2018-08-04T12:09:14.910Z,75.62
2018-08-04T12:11:51.273Z,76.66
2018-08-04T12:14:28.152Z,77.01
2018-08-04T12:17:05.200Z,76.40
2018-08-04T12:19:42.333Z,76.59
2018-08-04T12:22:19.681Z,78.03
2018-08-04T12:24:57.197Z,78.37
2018-08-04T12:27:34.269Z,77.86
2018-08-04T12:30:12.481Z,78.47
2018-08-04T12:32:48.996Z,79.04
2018-08-04T12:35:26.239Z,79.64
2018-08-04T12:38:02.561Z,79.59
2018-08-04T12:40:39.571Z,79.26
2018-08-04T12:43:17.234Z,79.71
2018-08-04T12:45:54.474Z,79.33
2018-08-04T12:48:32.399Z,79.33
2018-08-04T12:51:08.303Z,79.28
2018-08-04T12:53:45.080Z,79.51
2018-08-04T12:56:21.078Z,81.08
2018-08-04T12:58:58.154Z,80.43
2018-08-04T13:01:35.285Z,81.88
2018-08-04T13:04:16.141Z,82.22
2018-08-04T13:06:53.065Z,81.21
2018-08-04T13:09:30.571Z,81.56
2018-08-04T13:12:07.757Z,83.01
2018-08-04T13:14:44.600Z,82.50
2018-08-04T13:17:20.553Z,81.04
2018-08-04T13:19:58.162Z,81.57
2018-08-04T13:22:35.864Z,81.90
2018-08-04T13:25:14.347Z,82.34
2018-08-04T13:27:59.124Z,83.83
2018-08-04T13:30:36.364Z,84.64
2018-08-04T13:33:13.998Z,86.11
2018-08-04T13:35:50.794Z,86.62
2018-08-04T13:38:27.327Z,88.63
2018-08-04T13:41:03.812Z,88.44
2018-08-04T13:43:40.582Z,88.41
2018-08-04T13:46:18.663Z,92.86
2018-08-04T13:48:56.200Z,94.08
2018-08-04T13:51:36.407Z,96.48
2018-08-04T13:54:24.533Z,98.03
2018-08-04T13:57:02.413Z,98.80
2018-08-04T14:00:04.772Z,98.47
2018-08-04T14:02:42.238Z,98.92
2018-08-04T14:05:18.638Z,99.63
2018-08-04T14:07:55.687Z,100.00
2018-08-04T14:10:34.407Z,100.00
2018-08-04T14:13:11.841Z,100.00
2018-08-04T14:15:49.526Z,100.00
2018-08-04T14:18:27.253Z,100.00
2018-08-04T14:21:04.406Z,100.00
2018-08-04T14:23:41.013Z,100.00
2018-08-04T14:26:17.673Z,100.00
2018-08-04T14:28:54.039Z,100.00
2018-08-04T14:31:31.002Z,100.00
2018-08-04T14:34:08.067Z,100.00
2018-08-04T14:36:44.715Z,100.00
2018-08-04T14:39:22.367Z,100.00
2018-08-04T14:41:59.151Z,100.00
2018-08-04T14:44:36.618Z,100.00
2018-08-04T14:47:21.751Z,100.00
2018-08-04T14:49:58.967Z,100.00
2018-08-04T14:52:34.825Z,100.00
2018-08-04T14:55:28.232Z,100.00
2018-08-04T14:58:23.704Z,100.00
2018-08-04T15:01:03.951Z,100.00
2018-08-04T15:03:45.623Z,100.00
2018-08-04T15:06:25.034Z,100.00
2018-08-04T15:09:12.481Z,100.00
2018-08-04T15:12:05.608Z,100.00
2018-08-04T15:14:43.385Z,100.00
2018-08-04T15:17:44.636Z,100.00
2018-08-04T15:20:48.349Z,100.00
2018-08-04T15:23:51.791Z,100.00
2018-08-04T15:26:55.516Z,100.00
2018-08-04T15:29:59.281Z,100.00
2018-08-04T15:32:43.251Z,100.00
2018-08-04T15:35:20.474Z,100.00
2018-08-04T15:38:05.610Z,100.00
2018-08-04T15:41:08.070Z,100.00
2018-08-04T15:43:47.664Z,100.00
2018-08-04T15:46:49.998Z,100.00
2018-08-04T15:49:28.530Z,100.00
2018-08-04T15:52:06.368Z,100.00
2018-08-04T15:54:59.911Z,100.00
2018-08-04T15:57:38.850Z,100.00
2018-08-04T16:00:37.394Z,100.00
2018-08-04T16:03:35.436Z,100.00
2018-08-04T16:06:39.625Z,100.00
2018-08-04T16:09:19.162Z,100.00
2018-08-04T16:11:57.980Z,100.00
2018-08-04T16:14:37.036Z,100.00
2018-08-04T16:17:14.402Z,100.00
2018-08-04T16:19:51.271Z,100.00
2018-08-04T16:22:28.954Z,100.00
2018-08-04T16:25:05.262Z,100.00
2018-08-04T16:27:42.193Z,100.00
2018-08-04T16:30:29.305Z,100.00
2018-08-04T16:33:12.126Z,100.00
2018-08-04T16:35:58.881Z,100.00
2018-08-04T16:38:37.917Z,100.00
2018-08-04T16:41:15.998Z,100.00
2018-08-04T16:43:54.720Z,100.00
2018-08-04T16:46:34.126Z,100.00
2018-08-04T16:49:11.275Z,100.00
2018-08-04T16:52:15.692Z,100.00
2018-08-04T16:54:58.522Z,100.00
2018-08-04T16:57:37.196Z,100.00
2018-08-04T17:00:15.621Z,100.00
2018-08-04T17:02:53.350Z,100.00
2018-08-04T17:05:31.757Z,100.00
2018-08-04T17:08:10.804Z,100.00
2018-08-04T17:10:49.520Z,100.00
2018-08-04T17:13:27.596Z,100.00
2018-08-04T17:16:05.684Z,100.00
2018-08-04T17:18:43.263Z,100.00
2018-08-04T17:21:20.884Z,100.00
2018-08-04T17:23:58.636Z,100.00
2018-08-04T17:26:36.716Z,100.00
2018-08-04T17:29:15.437Z,100.00
2018-08-04T17:31:54.050Z,100.00
2018-08-04T17:34:33.201Z,100.00
2018-08-04T17:37:10.750Z,100.00
2018-08-04T17:39:48.592Z,100.00
2018-08-04T17:42:41.197Z,100.00
2018-08-04T17:45:48.414Z,100.00
2018-08-04T17:48:52.661Z,100.00
2018-08-04T17:52:00.014Z,100.00
2018-08-04T17:55:01.285Z,100.00
2018-08-04T17:58:03.880Z,100.00
2018-08-04T18:00:43.786Z,100.00
2018-08-04T18:03:44.038Z,100.00
2018-08-04T18:06:46.560Z,100.00
2018-08-04T18:09:52.324Z,100.00
2018-08-04T18:12:57.038Z,100.00
2018-08-04T18:16:01.698Z,100.00
2018-08-04T18:18:53.626Z,100.00
2018-08-04T18:21:39.083Z,100.00
2018-08-04T18:24:17.270Z,100.00
2018-08-04T18:26:55.924Z,100.00
2018-08-04T18:29:33.785Z,100.00
2018-08-04T18:32:34.363Z,100.00
2018-08-04T18:35:30.006Z,100.00
2018-08-04T18:38:08.569Z,100.00
2018-08-04T18:40:47.688Z,100.00
2018-08-04T18:43:26.353Z,100.00
2018-08-04T18:46:06.314Z,100.00
2018-08-04T18:48:46.026Z,100.00
2018-08-04T18:51:24.124Z,100.00
2018-08-04T18:54:01.930Z,100.00
2018-08-04T18:56:40.553Z,100.00
2018-08-04T18:59:19.248Z,100.00
2018-08-04T19:01:57.931Z,100.00
2018-08-04T19:04:36.475Z,100.00
2018-08-04T19:07:14.479Z,100.00
2018-08-04T19:09:53.197Z,100.00
2018-08-04T19:12:32.237Z,100.00
2018-08-04T19:15:10.904Z,100.00
2018-08-04T19:17:48.391Z,100.00
2018-08-04T19:20:26.721Z,100.00
2018-08-04T19:23:04.246Z,100.00
2018-08-04T19:25:43.003Z,100.00
2018-08-04T19:28:21.752Z,100.00
2018-08-04T19:31:00.807Z,100.00
2018-08-04T19:33:40.044Z,100.00
2018-08-04T19:36:18.857Z,100.00
2018-08-04T19:38:56.522Z,100.00
2018-08-04T19:41:35.607Z,100.00
2018-08-04T19:44:14.723Z,100.00
2018-08-04T19:46:52.796Z,100.00
2018-08-04T19:49:31.113Z,100.00
2018-08-04T19:52:09.854Z,100.00
2018-08-04T19:54:48.922Z,100.00
2018-08-04T19:57:27.276Z,100.00
2018-08-04T20:00:05.711Z,100.00
2018-08-04T20:02:43.788Z,100.00
2018-08-04T20:05:22.799Z,100.00
2018-08-04T20:08:01.513Z,100.00
2018-08-04T20:10:39.566Z,100.00
2018-08-04T20:13:18.002Z,100.00
2018-08-04T20:15:56.218Z,100.00
2018-08-04T20:18:34.472Z,100.00
2018-08-04T20:21:12.684Z,100.00
2018-08-04T20:23:51.557Z,100.00
2018-08-04T20:26:29.448Z,100.00
2018-08-04T20:29:08.089Z,100.00
2018-08-04T20:31:46.720Z,100.00
2018-08-04T20:34:25.271Z,100.00
2018-08-04T20:37:03.929Z,100.00
2018-08-04T20:39:42.997Z,100.00
2018-08-04T20:42:21.373Z,100.00
2018-08-04T20:45:00.570Z,100.00
2018-08-04T20:47:39.774Z,100.00
2018-08-04T20:50:18.181Z,100.00
2018-08-04T20:52:56.300Z,100.00
2018-08-04T20:55:35.598Z,100.00
2018-08-04T20:58:13.635Z,100.00
2018-08-04T21:00:59.303Z,100.00
2018-08-04T21:03:38.402Z,100.00
2018-08-04T21:06:16.834Z,100.00
2018-08-04T21:08:56.395Z,100.00
2018-08-04T21:11:34.806Z,100.00
2018-08-04T21:14:12.875Z,100.00
2018-08-04T21:16:52.555Z,100.00
2018-08-04T21:19:31.913Z,100.00
2018-08-04T21:22:11.601Z,100.00
2018-08-04T21:24:49.870Z,100.00
2018-08-04T21:27:29.043Z,100.00
2018-08-04T21:30:07.433Z,100.00
2018-08-04T21:32:45.593Z,100.00
2018-08-04T21:35:24.561Z,100.00
2018-08-04T21:38:02.323Z,100.00
2018-08-04T21:40:40.729Z,100.00
2018-08-04T21:43:20.042Z,100.00
2018-08-04T21:45:58.230Z,100.00
2018-08-04T21:48:35.753Z,100.00
2018-08-04T21:51:14.043Z,100.00
2018-08-04T21:53:52.395Z,100.00
2018-08-04T21:56:30.799Z,100.00
2018-08-04T21:59:09.286Z,100.00
2018-08-04T22:01:50.387Z,100.00
2018-08-04T22:04:29.840Z,100.00
2018-08-04T22:08:14.557Z,100.00
2018-08-04T22:10:52.648Z,100.00
2018-08-04T22:13:31.351Z,100.00
2018-08-04T22:16:10.069Z,100.00
2018-08-04T22:18:48.711Z,100.00
2018-08-04T22:21:28.073Z,100.00
2018-08-04T22:24:06.798Z,100.00
2018-08-04T22:26:46.476Z,100.00
2018-08-04T22:29:25.635Z,100.00
2018-08-04T22:32:04.229Z,100.00
2018-08-04T22:34:43.724Z,100.00
2018-08-04T22:37:22.634Z,100.00
2018-08-04T22:40:00.159Z,100.00
2018-08-04T22:42:38.205Z,100.00
2018-08-04T22:45:55.513Z,100.00
2018-08-04T22:48:34.085Z,100.00
2018-08-04T22:51:12.723Z,100.00
2018-08-04T22:53:51.200Z,100.00
2018-08-04T22:56:30.564Z,100.00
2018-08-04T22:59:06.631Z,100.00
2018-08-04T23:01:45.169Z,100.00
2018-08-04T23:04:24.401Z,100.00
2018-08-04T23:07:03.362Z,100.00
2018-08-04T23:09:42.474Z,100.00
2018-08-04T23:12:19.910Z,100.00
2018-08-04T23:14:58.715Z,100.00
2018-08-04T23:17:37.993Z,100.00
2018-08-04T23:20:16.076Z,100.00
2018-08-04T23:22:54.557Z,100.00
2018-08-04T23:25:32.973Z,100.00
2018-08-04T23:28:12.240Z,100.00
2018-08-04T23:30:50.632Z,100.00
2018-08-04T23:33:30.564Z,100.00
2018-08-04T23:36:09.439Z,100.00
2018-08-04T23:38:48.150Z,100.00
2018-08-04T23:41:27.433Z,100.00
2018-08-04T23:44:06.723Z,100.00
2018-08-04T23:46:45.561Z,100.00
2018-08-04T23:49:23.366Z,100.00
2018-08-04T23:52:01.166Z,100.00
2018-08-04T23:54:39.805Z,100.00
2018-08-04T23:57:18.728Z,100.00
2018-08-04T23:59:57.284Z,100.00
